sensor_id;sensor_type;location;lat;lon;timestamp;temperature;humidity
10826;DHT22;5466;55.898;14.094;2023-07-30T00:01:32;15.30;99.90
10826;DHT22;5466;55.898;14.094;2023-07-30T00:03:33;15.30;99.90
10826;DHT22;5466;55.898;14.094;2023-07-30T00:05:34;15.20;99.90
10826;DHT22;5466;55.898;14.094;2023-07-30T00:07:34;15.20;99.90
10826;DHT22;5466;55.898;14.094;2023-07-30T00:09:35;15.10;99.90
10826;DHT22;5466;55.898;14.094;2023-07-30T00:11:35;15.10;99.90
10826;DHT22;5466;55.898;14.094;2023-07-30T00:13:36;15.10;99.90
10826;DHT22;5466;55.898;14.094;2023-07-30T00:15:37;15.10;99.90
10826;DHT22;5466;55.898;14.094;2023-07-30T00:17:37;15.20;99.90
10826;DHT22;5466;55.898;14.094;2023-07-30T00:19:38;15.20;99.90
10826;DHT22;5466;55.898;14.094;2023-07-30T00:21:38;15.30;99.90
10826;DHT22;5466;55.898;14.094;2023-07-30T00:23:39;15.30;99.90
10826;DHT22;5466;55.898;14.094;2023-07-30T00:25:39;15.30;99.90
10826;DHT22;5466;55.898;14.094;2023-07-30T00:27:40;15.30;99.90
10826;DHT22;5466;55.898;14.094;2023-07-30T00:29:40;15.30;99.90
10826;DHT22;5466;55.898;14.094;2023-07-30T00:31:41;15.30;99.90
10826;DHT22;5466;55.898;14.094;2023-07-30T00:33:42;15.20;99.90
10826;DHT22;5466;55.898;14.094;2023-07-30T00:35:42;15.30;99.90
10826;DHT22;5466;55.898;14.094;2023-07-30T00:37:43;15.30;99.90
10826;DHT22;5466;55.898;14.094;2023-07-30T00:39:44;15.30;99.90
10826;DHT22;5466;55.898;14.094;2023-07-30T00:41:44;15.30;99.90
10826;DHT22;5466;55.898;14.094;2023-07-30T00:43:46;15.40;99.90
10826;DHT22;5466;55.898;14.094;2023-07-30T00:45:47;15.30;99.90
10826;DHT22;5466;55.898;14.094;2023-07-30T00:47:47;15.30;99.90
10826;DHT22;5466;55.898;14.094;2023-07-30T00:49:49;15.20;99.90
10826;DHT22;5466;55.898;14.094;2023-07-30T00:51:50;15.20;99.90
10826;DHT22;5466;55.898;14.094;2023-07-30T00:53:51;15.20;99.90
10826;DHT22;5466;55.898;14.094;2023-07-30T00:55:52;15.20;99.90
10826;DHT22;5466;55.898;14.094;2023-07-30T00:57:53;15.20;99.90
10826;DHT22;5466;55.898;14.094;2023-07-30T00:59:54;15.30;99.90
10826;DHT22;5466;55.898;14.094;2023-07-30T01:01:56;15.20;99.90
10826;DHT22;5466;55.898;14.094;2023-07-30T01:03:57;15.20;99.90
10826;DHT22;5466;55.898;14.094;2023-07-30T01:05:59;15.20;99.90
10826;DHT22;5466;55.898;14.094;2023-07-30T01:07:59;15.30;99.90
10826;DHT22;5466;55.898;14.094;2023-07-30T01:10:01;15.30;99.90
10826;DHT22;5466;55.898;14.094;2023-07-30T01:12:02;15.30;99.90
10826;DHT22;5466;55.898;14.094;2023-07-30T01:14:05;15.30;99.90
10826;DHT22;5466;55.898;14.094;2023-07-30T01:16:05;15.40;99.90
10826;DHT22;5466;55.898;14.094;2023-07-30T01:18:07;15.40;99.90
10826;DHT22;5466;55.898;14.094;2023-07-30T01:20:08;15.40;99.90
10826;DHT22;5466;55.898;14.094;2023-07-30T01:22:08;15.50;99.90
10826;DHT22;5466;55.898;14.094;2023-07-30T01:24:09;15.50;99.90
10826;DHT22;5466;55.898;14.094;2023-07-30T01:26:19;15.50;99.90
10826;DHT22;5466;55.898;14.094;2023-07-30T01:28:23;15.50;99.90
10826;DHT22;5466;55.898;14.094;2023-07-30T01:30:32;15.40;99.90
10826;DHT22;5466;55.898;14.094;2023-07-30T01:32:36;15.40;99.90
10826;DHT22;5466;55.898;14.094;2023-07-30T01:34:39;15.40;99.90
10826;DHT22;5466;55.898;14.094;2023-07-30T01:36:41;15.40;99.90
10826;DHT22;5466;55.898;14.094;2023-07-30T01:38:43;15.30;99.90
10826;DHT22;5466;55.898;14.094;2023-07-30T01:40:43;15.40;99.90
10826;DHT22;5466;55.898;14.094;2023-07-30T01:42:44;15.30;99.90
10826;DHT22;5466;55.898;14.094;2023-07-30T01:44:45;15.30;99.90
10826;DHT22;5466;55.898;14.094;2023-07-30T01:46:45;15.20;99.90
10826;DHT22;5466;55.898;14.094;2023-07-30T01:48:46;15.20;99.90
10826;DHT22;5466;55.898;14.094;2023-07-30T01:50:47;15.20;99.90
10826;DHT22;5466;55.898;14.094;2023-07-30T01:52:49;15.20;99.90
10826;DHT22;5466;55.898;14.094;2023-07-30T01:54:49;15.20;99.90
10826;DHT22;5466;55.898;14.094;2023-07-30T01:56:50;15.20;99.90
10826;DHT22;5466;55.898;14.094;2023-07-30T01:58:51;15.20;99.90
10826;DHT22;5466;55.898;14.094;2023-07-30T02:00:51;15.20;99.90
10826;DHT22;5466;55.898;14.094;2023-07-30T02:02:52;15.30;99.90
10826;DHT22;5466;55.898;14.094;2023-07-30T02:04:53;15.30;99.90
10826;DHT22;5466;55.898;14.094;2023-07-30T02:06:53;15.10;99.90
10826;DHT22;5466;55.898;14.094;2023-07-30T02:08:54;15.20;99.90
10826;DHT22;5466;55.898;14.094;2023-07-30T02:10:56;15.20;99.90
10826;DHT22;5466;55.898;14.094;2023-07-30T02:12:57;15.20;99.90
10826;DHT22;5466;55.898;14.094;2023-07-30T02:14:57;15.30;99.90
10826;DHT22;5466;55.898;14.094;2023-07-30T02:16:58;15.30;99.90
10826;DHT22;5466;55.898;14.094;2023-07-30T02:18:58;15.40;99.90
10826;DHT22;5466;55.898;14.094;2023-07-30T02:20:59;15.40;99.90
10826;DHT22;5466;55.898;14.094;2023-07-30T02:23:00;15.40;99.90
10826;DHT22;5466;55.898;14.094;2023-07-30T02:25:00;15.40;99.90
10826;DHT22;5466;55.898;14.094;2023-07-30T02:27:01;15.40;99.90
10826;DHT22;5466;55.898;14.094;2023-07-30T02:29:01;15.40;99.90
10826;DHT22;5466;55.898;14.094;2023-07-30T02:31:02;15.40;99.90
10826;DHT22;5466;55.898;14.094;2023-07-30T02:33:02;15.40;99.90
10826;DHT22;5466;55.898;14.094;2023-07-30T02:35:03;15.40;99.90
10826;DHT22;5466;55.898;14.094;2023-07-30T02:37:04;15.40;99.90
10826;DHT22;5466;55.898;14.094;2023-07-30T02:39:05;15.40;99.90
10826;DHT22;5466;55.898;14.094;2023-07-30T02:41:05;15.40;99.90
10826;DHT22;5466;55.898;14.094;2023-07-30T02:43:06;15.40;99.90
10826;DHT22;5466;55.898;14.094;2023-07-30T02:45:07;15.50;99.90
10826;DHT22;5466;55.898;14.094;2023-07-30T02:47:07;15.60;99.90
10826;DHT22;5466;55.898;14.094;2023-07-30T02:49:08;15.60;99.90
10826;DHT22;5466;55.898;14.094;2023-07-30T02:51:09;15.60;99.90
10826;DHT22;5466;55.898;14.094;2023-07-30T02:53:09;15.60;99.90
10826;DHT22;5466;55.898;14.094;2023-07-30T02:55:10;15.60;99.90
10826;DHT22;5466;55.898;14.094;2023-07-30T02:57:10;15.60;99.90
10826;DHT22;5466;55.898;14.094;2023-07-30T02:59:12;15.50;99.90
10826;DHT22;5466;55.898;14.094;2023-07-30T03:01:13;15.40;99.90
10826;DHT22;5466;55.898;14.094;2023-07-30T03:03:14;15.40;99.90
10826;DHT22;5466;55.898;14.094;2023-07-30T03:05:14;15.40;99.90
10826;DHT22;5466;55.898;14.094;2023-07-30T03:07:15;15.40;99.90
10826;DHT22;5466;55.898;14.094;2023-07-30T03:09:15;15.40;99.90
10826;DHT22;5466;55.898;14.094;2023-07-30T03:11:16;15.40;99.90
10826;DHT22;5466;55.898;14.094;2023-07-30T03:13:16;15.40;99.90
10826;DHT22;5466;55.898;14.094;2023-07-30T03:15:18;15.40;99.90
10826;DHT22;5466;55.898;14.094;2023-07-30T03:17:19;15.30;99.90
10826;DHT22;5466;55.898;14.094;2023-07-30T03:19:19;15.30;99.90
10826;DHT22;5466;55.898;14.094;2023-07-30T03:21:20;15.30;99.90
10826;DHT22;5466;55.898;14.094;2023-07-30T03:23:21;15.30;99.90
10826;DHT22;5466;55.898;14.094;2023-07-30T03:25:21;15.30;99.90
10826;DHT22;5466;55.898;14.094;2023-07-30T03:27:22;15.30;99.90
10826;DHT22;5466;55.898;14.094;2023-07-30T03:29:22;15.30;99.90
10826;DHT22;5466;55.898;14.094;2023-07-30T03:31:23;15.30;99.90
10826;DHT22;5466;55.898;14.094;2023-07-30T03:33:24;15.30;99.90
10826;DHT22;5466;55.898;14.094;2023-07-30T03:35:24;15.30;99.90
10826;DHT22;5466;55.898;14.094;2023-07-30T03:37:25;15.30;99.90
10826;DHT22;5466;55.898;14.094;2023-07-30T03:39:26;15.30;99.90
10826;DHT22;5466;55.898;14.094;2023-07-30T03:41:26;15.30;99.90
10826;DHT22;5466;55.898;14.094;2023-07-30T03:43:27;15.30;99.90
10826;DHT22;5466;55.898;14.094;2023-07-30T03:45:27;15.30;99.90
10826;DHT22;5466;55.898;14.094;2023-07-30T03:47:28;15.20;99.90
10826;DHT22;5466;55.898;14.094;2023-07-30T03:49:28;15.20;99.90
10826;DHT22;5466;55.898;14.094;2023-07-30T03:51:29;15.20;99.90
10826;DHT22;5466;55.898;14.094;2023-07-30T03:53:30;15.20;99.90
10826;DHT22;5466;55.898;14.094;2023-07-30T03:55:30;15.20;99.90
10826;DHT22;5466;55.898;14.094;2023-07-30T03:57:32;15.20;99.90
10826;DHT22;5466;55.898;14.094;2023-07-30T03:59:32;15.30;99.90
10826;DHT22;5466;55.898;14.094;2023-07-30T04:01:33;15.30;99.90
10826;DHT22;5466;55.898;14.094;2023-07-30T04:03:34;15.20;99.90
10826;DHT22;5466;55.898;14.094;2023-07-30T04:05:34;15.30;99.90
10826;DHT22;5466;55.898;14.094;2023-07-30T04:07:35;15.30;99.90
10826;DHT22;5466;55.898;14.094;2023-07-30T04:09:36;15.30;99.90
10826;DHT22;5466;55.898;14.094;2023-07-30T04:11:37;15.40;99.90
10826;DHT22;5466;55.898;14.094;2023-07-30T04:13:37;15.40;99.90
10826;DHT22;5466;55.898;14.094;2023-07-30T04:15:38;15.40;99.90
10826;DHT22;5466;55.898;14.094;2023-07-30T04:17:38;15.40;99.90
10826;DHT22;5466;55.898;14.094;2023-07-30T04:19:39;15.40;99.90
10826;DHT22;5466;55.898;14.094;2023-07-30T04:21:39;15.50;99.90
10826;DHT22;5466;55.898;14.094;2023-07-30T04:23:40;15.50;99.90
10826;DHT22;5466;55.898;14.094;2023-07-30T04:25:41;15.50;99.90
10826;DHT22;5466;55.898;14.094;2023-07-30T04:27:41;15.50;99.90
10826;DHT22;5466;55.898;14.094;2023-07-30T04:29:42;15.50;99.90
10826;DHT22;5466;55.898;14.094;2023-07-30T04:31:43;15.50;99.90
10826;DHT22;5466;55.898;14.094;2023-07-30T04:33:43;15.60;99.90
10826;DHT22;5466;55.898;14.094;2023-07-30T04:35:44;15.70;99.90
10826;DHT22;5466;55.898;14.094;2023-07-30T04:37:44;15.90;99.90
10826;DHT22;5466;55.898;14.094;2023-07-30T04:39:45;16.00;99.90
10826;DHT22;5466;55.898;14.094;2023-07-30T04:41:45;16.10;99.90
10826;DHT22;5466;55.898;14.094;2023-07-30T04:43:46;16.20;99.90
10826;DHT22;5466;55.898;14.094;2023-07-30T04:45:47;16.30;99.90
10826;DHT22;5466;55.898;14.094;2023-07-30T04:47:47;16.30;99.90
10826;DHT22;5466;55.898;14.094;2023-07-30T04:49:48;16.40;99.90
10826;DHT22;5466;55.898;14.094;2023-07-30T04:51:48;16.50;99.90
10826;DHT22;5466;55.898;14.094;2023-07-30T04:53:49;16.60;99.90
10826;DHT22;5466;55.898;14.094;2023-07-30T04:55:55;16.70;99.90
10826;DHT22;5466;55.898;14.094;2023-07-30T04:57:56;16.80;99.90
10826;DHT22;5466;55.898;14.094;2023-07-30T04:59:56;16.90;99.90
10826;DHT22;5466;55.898;14.094;2023-07-30T05:01:57;17.00;99.90
10826;DHT22;5466;55.898;14.094;2023-07-30T05:03:57;17.10;99.90
10826;DHT22;5466;55.898;14.094;2023-07-30T05:05:58;17.30;99.90
10826;DHT22;5466;55.898;14.094;2023-07-30T05:07:59;17.50;99.90
10826;DHT22;5466;55.898;14.094;2023-07-30T05:09:59;17.70;99.90
10826;DHT22;5466;55.898;14.094;2023-07-30T05:12:00;17.60;99.90
10826;DHT22;5466;55.898;14.094;2023-07-30T05:14:00;17.60;99.90
10826;DHT22;5466;55.898;14.094;2023-07-30T05:16:01;17.40;99.90
10826;DHT22;5466;55.898;14.094;2023-07-30T05:18:02;17.30;99.90
10826;DHT22;5466;55.898;14.094;2023-07-30T05:20:03;17.30;99.90
10826;DHT22;5466;55.898;14.094;2023-07-30T05:22:03;17.20;99.90
10826;DHT22;5466;55.898;14.094;2023-07-30T05:24:07;17.20;99.90
10826;DHT22;5466;55.898;14.094;2023-07-30T05:26:08;17.20;99.90
10826;DHT22;5466;55.898;14.094;2023-07-30T05:28:08;17.40;99.90
10826;DHT22;5466;55.898;14.094;2023-07-30T05:30:09;17.40;99.90
10826;DHT22;5466;55.898;14.094;2023-07-30T05:32:10;17.50;99.90
10826;DHT22;5466;55.898;14.094;2023-07-30T05:34:11;17.70;99.90
10826;DHT22;5466;55.898;14.094;2023-07-30T05:36:11;18.10;99.90
10826;DHT22;5466;55.898;14.094;2023-07-30T05:38:12;18.60;99.90
10826;DHT22;5466;55.898;14.094;2023-07-30T05:40:13;18.90;99.90
10826;DHT22;5466;55.898;14.094;2023-07-30T05:42:13;19.00;99.90
10826;DHT22;5466;55.898;14.094;2023-07-30T05:44:16;18.90;99.90
10826;DHT22;5466;55.898;14.094;2023-07-30T05:46:16;18.60;99.90
10826;DHT22;5466;55.898;14.094;2023-07-30T05:48:17;18.50;99.90
10826;DHT22;5466;55.898;14.094;2023-07-30T05:50:18;18.40;99.90
10826;DHT22;5466;55.898;14.094;2023-07-30T05:52:19;18.30;99.90
10826;DHT22;5466;55.898;14.094;2023-07-30T05:54:19;18.20;99.90
10826;DHT22;5466;55.898;14.094;2023-07-30T05:56:20;18.30;99.90
10826;DHT22;5466;55.898;14.094;2023-07-30T05:58:20;18.70;99.90
10826;DHT22;5466;55.898;14.094;2023-07-30T06:00:21;19.20;99.90
10826;DHT22;5466;55.898;14.094;2023-07-30T06:02:21;19.50;99.90
10826;DHT22;5466;55.898;14.094;2023-07-30T06:04:22;19.50;99.90
10826;DHT22;5466;55.898;14.094;2023-07-30T06:06:22;19.50;99.90
10826;DHT22;5466;55.898;14.094;2023-07-30T06:08:27;19.70;99.90
10826;DHT22;5466;55.898;14.094;2023-07-30T06:10:30;20.10;99.90
10826;DHT22;5466;55.898;14.094;2023-07-30T06:12:30;20.60;99.90
10826;DHT22;5466;55.898;14.094;2023-07-30T06:14:31;21.20;99.90
10826;DHT22;5466;55.898;14.094;2023-07-30T06:16:31;21.80;99.90
10826;DHT22;5466;55.898;14.094;2023-07-30T06:18:32;21.80;99.90
10826;DHT22;5466;55.898;14.094;2023-07-30T06:20:33;21.70;99.90
10826;DHT22;5466;55.898;14.094;2023-07-30T06:22:33;21.30;99.90
10826;DHT22;5466;55.898;14.094;2023-07-30T06:24:34;21.10;99.90
10826;DHT22;5466;55.898;14.094;2023-07-30T06:26:34;20.90;99.90
10826;DHT22;5466;55.898;14.094;2023-07-30T06:28:35;21.10;99.90
10826;DHT22;5466;55.898;14.094;2023-07-30T06:30:36;21.70;99.90
10826;DHT22;5466;55.898;14.094;2023-07-30T06:32:37;22.40;99.90
10826;DHT22;5466;55.898;14.094;2023-07-30T06:34:37;22.60;99.90
10826;DHT22;5466;55.898;14.094;2023-07-30T06:36:38;22.80;99.90
10826;DHT22;5466;55.898;14.094;2023-07-30T06:38:38;23.10;99.90
10826;DHT22;5466;55.898;14.094;2023-07-30T06:40:39;22.90;99.90
10826;DHT22;5466;55.898;14.094;2023-07-30T06:42:40;22.20;99.90
10826;DHT22;5466;55.898;14.094;2023-07-30T06:44:40;21.40;99.90
10826;DHT22;5466;55.898;14.094;2023-07-30T06:46:41;21.10;99.90
10826;DHT22;5466;55.898;14.094;2023-07-30T06:48:42;20.70;99.90
10826;DHT22;5466;55.898;14.094;2023-07-30T06:50:42;21.10;99.90
10826;DHT22;5466;55.898;14.094;2023-07-30T06:52:43;21.70;99.90
10826;DHT22;5466;55.898;14.094;2023-07-30T06:54:43;22.10;99.90
10826;DHT22;5466;55.898;14.094;2023-07-30T06:56:44;22.30;99.90
10826;DHT22;5466;55.898;14.094;2023-07-30T06:58:44;22.70;99.90
10826;DHT22;5466;55.898;14.094;2023-07-30T07:00:45;22.90;99.90
10826;DHT22;5466;55.898;14.094;2023-07-30T07:02:45;23.10;99.90
10826;DHT22;5466;55.898;14.094;2023-07-30T07:04:46;23.00;99.90
10826;DHT22;5466;55.898;14.094;2023-07-30T07:06:47;23.30;99.90
10826;DHT22;5466;55.898;14.094;2023-07-30T07:08:47;23.20;99.90
10826;DHT22;5466;55.898;14.094;2023-07-30T07:10:48;22.90;99.90
10826;DHT22;5466;55.898;14.094;2023-07-30T07:12:49;22.60;99.90
10826;DHT22;5466;55.898;14.094;2023-07-30T07:14:50;22.60;99.90
10826;DHT22;5466;55.898;14.094;2023-07-30T07:16:52;22.90;99.90
10826;DHT22;5466;55.898;14.094;2023-07-30T07:18:52;23.00;99.90
10826;DHT22;5466;55.898;14.094;2023-07-30T07:20:53;23.30;99.90
10826;DHT22;5466;55.898;14.094;2023-07-30T07:22:54;22.90;99.90
10826;DHT22;5466;55.898;14.094;2023-07-30T07:24:54;22.70;99.90
10826;DHT22;5466;55.898;14.094;2023-07-30T07:26:55;22.20;99.90
10826;DHT22;5466;55.898;14.094;2023-07-30T07:28:56;21.80;99.90
10826;DHT22;5466;55.898;14.094;2023-07-30T07:30:57;22.10;99.90
10826;DHT22;5466;55.898;14.094;2023-07-30T07:32:57;22.30;99.90
10826;DHT22;5466;55.898;14.094;2023-07-30T07:34:58;21.90;99.90
10826;DHT22;5466;55.898;14.094;2023-07-30T07:36:58;21.90;99.90
10826;DHT22;5466;55.898;14.094;2023-07-30T07:38:59;22.30;99.90
10826;DHT22;5466;55.898;14.094;2023-07-30T07:41:00;22.80;99.90
10826;DHT22;5466;55.898;14.094;2023-07-30T07:43:01;23.70;99.90
10826;DHT22;5466;55.898;14.094;2023-07-30T07:45:02;24.40;99.90
10826;DHT22;5466;55.898;14.094;2023-07-30T07:47:03;24.90;99.90
10826;DHT22;5466;55.898;14.094;2023-07-30T07:49:04;25.30;99.90
10826;DHT22;5466;55.898;14.094;2023-07-30T07:51:04;25.80;99.90
10826;DHT22;5466;55.898;14.094;2023-07-30T07:53:05;25.30;99.90
10826;DHT22;5466;55.898;14.094;2023-07-30T07:55:06;24.90;99.90
10826;DHT22;5466;55.898;14.094;2023-07-30T07:57:07;25.50;99.90
10826;DHT22;5466;55.898;14.094;2023-07-30T07:59:07;26.30;99.90
10826;DHT22;5466;55.898;14.094;2023-07-30T08:01:08;26.60;99.90
10826;DHT22;5466;55.898;14.094;2023-07-30T08:03:08;26.80;99.90
10826;DHT22;5466;55.898;14.094;2023-07-30T08:05:09;27.00;99.90
10826;DHT22;5466;55.898;14.094;2023-07-30T08:07:09;26.60;99.30
10826;DHT22;5466;55.898;14.094;2023-07-30T08:09:10;25.80;99.90
10826;DHT22;5466;55.898;14.094;2023-07-30T08:11:10;25.70;99.90
10826;DHT22;5466;55.898;14.094;2023-07-30T08:13:11;25.40;99.90
10826;DHT22;5466;55.898;14.094;2023-07-30T08:15:12;24.40;99.90
10826;DHT22;5466;55.898;14.094;2023-07-30T08:17:12;24.10;99.90
10826;DHT22;5466;55.898;14.094;2023-07-30T08:19:13;23.70;99.90
10826;DHT22;5466;55.898;14.094;2023-07-30T08:21:13;23.60;99.90
10826;DHT22;5466;55.898;14.094;2023-07-30T08:23:15;23.90;99.90
10826;DHT22;5466;55.898;14.094;2023-07-30T08:25:16;23.70;99.90
10826;DHT22;5466;55.898;14.094;2023-07-30T08:27:16;23.40;99.90
10826;DHT22;5466;55.898;14.094;2023-07-30T08:29:17;23.50;99.90
10826;DHT22;5466;55.898;14.094;2023-07-30T08:31:17;23.70;99.90
10826;DHT22;5466;55.898;14.094;2023-07-30T08:33:18;23.90;99.90
10826;DHT22;5466;55.898;14.094;2023-07-30T08:35:18;24.10;99.90
10826;DHT22;5466;55.898;14.094;2023-07-30T08:37:19;24.90;99.90
10826;DHT22;5466;55.898;14.094;2023-07-30T08:39:20;25.50;99.90
10826;DHT22;5466;55.898;14.094;2023-07-30T08:41:20;25.70;99.90
10826;DHT22;5466;55.898;14.094;2023-07-30T08:43:21;25.90;99.90
10826;DHT22;5466;55.898;14.094;2023-07-30T08:45:22;25.60;99.90
10826;DHT22;5466;55.898;14.094;2023-07-30T08:47:22;25.10;99.90
10826;DHT22;5466;55.898;14.094;2023-07-30T08:49:23;25.00;99.90
10826;DHT22;5466;55.898;14.094;2023-07-30T08:51:26;25.90;99.90
10826;DHT22;5466;55.898;14.094;2023-07-30T08:53:26;25.50;99.90
10826;DHT22;5466;55.898;14.094;2023-07-30T08:55:28;25.10;99.90
10826;DHT22;5466;55.898;14.094;2023-07-30T08:57:30;25.50;99.90
10826;DHT22;5466;55.898;14.094;2023-07-30T08:59:39;25.80;99.90
10826;DHT22;5466;55.898;14.094;2023-07-30T09:01:41;26.00;99.90
10826;DHT22;5466;55.898;14.094;2023-07-30T09:03:45;26.00;99.90
10826;DHT22;5466;55.898;14.094;2023-07-30T09:05:47;25.70;99.40
10826;DHT22;5466;55.898;14.094;2023-07-30T09:07:48;25.30;99.90
10826;DHT22;5466;55.898;14.094;2023-07-30T09:09:49;25.80;99.90
10826;DHT22;5466;55.898;14.094;2023-07-30T09:11:53;25.90;99.90
10826;DHT22;5466;55.898;14.094;2023-07-30T09:14:01;25.80;99.00
10826;DHT22;5466;55.898;14.094;2023-07-30T09:16:08;25.70;99.90
10826;DHT22;5466;55.898;14.094;2023-07-30T09:18:09;26.10;99.10
10826;DHT22;5466;55.898;14.094;2023-07-30T09:20:10;26.00;99.30
10826;DHT22;5466;55.898;14.094;2023-07-30T09:22:11;25.50;99.80
10826;DHT22;5466;55.898;14.094;2023-07-30T09:24:11;25.50;99.70
10826;DHT22;5466;55.898;14.094;2023-07-30T09:26:13;25.50;97.60
10826;DHT22;5466;55.898;14.094;2023-07-30T09:28:13;25.30;97.60
10826;DHT22;5466;55.898;14.094;2023-07-30T09:30:14;24.90;99.90
10826;DHT22;5466;55.898;14.094;2023-07-30T09:32:14;24.20;99.90
10826;DHT22;5466;55.898;14.094;2023-07-30T09:34:16;24.20;99.90
10826;DHT22;5466;55.898;14.094;2023-07-30T09:36:19;24.60;99.90
10826;DHT22;5466;55.898;14.094;2023-07-30T09:38:20;25.30;99.90
10826;DHT22;5466;55.898;14.094;2023-07-30T09:40:20;25.60;98.70
10826;DHT22;5466;55.898;14.094;2023-07-30T09:42:30;26.00;97.30
10826;DHT22;5466;55.898;14.094;2023-07-30T09:44:34;26.20;96.60
10826;DHT22;5466;55.898;14.094;2023-07-30T09:46:43;26.10;97.10
10826;DHT22;5466;55.898;14.094;2023-07-30T09:48:44;26.10;98.10
10826;DHT22;5466;55.898;14.094;2023-07-30T09:50:45;26.70;98.40
10826;DHT22;5466;55.898;14.094;2023-07-30T09:52:46;27.50;96.50
10826;DHT22;5466;55.898;14.094;2023-07-30T09:54:49;27.90;93.80
10826;DHT22;5466;55.898;14.094;2023-07-30T09:56:50;28.10;93.20
10826;DHT22;5466;55.898;14.094;2023-07-30T09:58:51;28.00;91.90
10826;DHT22;5466;55.898;14.094;2023-07-30T10:00:51;26.90;92.20
10826;DHT22;5466;55.898;14.094;2023-07-30T10:02:55;25.50;94.80
10826;DHT22;5466;55.898;14.094;2023-07-30T10:04:59;25.30;97.60
10826;DHT22;5466;55.898;14.094;2023-07-30T10:07:04;25.20;98.20
10826;DHT22;5466;55.898;14.094;2023-07-30T10:09:09;25.50;96.90
10826;DHT22;5466;55.898;14.094;2023-07-30T10:11:11;26.10;95.20
10826;DHT22;5466;55.898;14.094;2023-07-30T10:13:12;27.00;95.10
10826;DHT22;5466;55.898;14.094;2023-07-30T10:15:13;27.90;93.40
10826;DHT22;5466;55.898;14.094;2023-07-30T10:17:18;28.10;90.70
10826;DHT22;5466;55.898;14.094;2023-07-30T10:19:23;28.50;91.00
10826;DHT22;5466;55.898;14.094;2023-07-30T10:21:25;28.80;92.10
10826;DHT22;5466;55.898;14.094;2023-07-30T10:23:32;28.70;90.00
10826;DHT22;5466;55.898;14.094;2023-07-30T10:25:47;28.00;87.20
10826;DHT22;5466;55.898;14.094;2023-07-30T10:27:50;26.80;90.40
10826;DHT22;5466;55.898;14.094;2023-07-30T10:32:11;25.90;94.00
10826;DHT22;5466;55.898;14.094;2023-07-30T10:34:12;25.60;94.20
10826;DHT22;5466;55.898;14.094;2023-07-30T10:36:13;25.60;95.10
10826;DHT22;5466;55.898;14.094;2023-07-30T10:38:29;26.30;93.90
10826;DHT22;5466;55.898;14.094;2023-07-30T10:40:30;27.00;92.90
10826;DHT22;5466;55.898;14.094;2023-07-30T10:42:34;27.40;94.50
10826;DHT22;5466;55.898;14.094;2023-07-30T10:44:35;28.00;92.90
10826;DHT22;5466;55.898;14.094;2023-07-30T10:46:35;28.20;91.50
10826;DHT22;5466;55.898;14.094;2023-07-30T10:48:38;27.90;91.20
10826;DHT22;5466;55.898;14.094;2023-07-30T10:50:40;27.30;91.30
10826;DHT22;5466;55.898;14.094;2023-07-30T10:52:40;27.40;90.70
10826;DHT22;5466;55.898;14.094;2023-07-30T10:54:41;27.20;90.90
10826;DHT22;5466;55.898;14.094;2023-07-30T10:56:41;27.20;93.80
10826;DHT22;5466;55.898;14.094;2023-07-30T10:58:42;27.20;92.00
10826;DHT22;5466;55.898;14.094;2023-07-30T11:00:43;26.30;91.50
10826;DHT22;5466;55.898;14.094;2023-07-30T11:02:53;25.50;93.80
10826;DHT22;5466;55.898;14.094;2023-07-30T11:04:54;24.80;95.90
10826;DHT22;5466;55.898;14.094;2023-07-30T11:06:54;24.30;98.50
10826;DHT22;5466;55.898;14.094;2023-07-30T11:08:55;24.90;99.60
10826;DHT22;5466;55.898;14.094;2023-07-30T11:10:55;25.70;98.30
10826;DHT22;5466;55.898;14.094;2023-07-30T11:12:57;26.20;96.90
10826;DHT22;5466;55.898;14.094;2023-07-30T11:15:04;26.60;93.00
10826;DHT22;5466;55.898;14.094;2023-07-30T11:17:05;27.00;91.60
10826;DHT22;5466;55.898;14.094;2023-07-30T11:19:08;27.80;90.50
10826;DHT22;5466;55.898;14.094;2023-07-30T11:21:12;28.20;89.00
10826;DHT22;5466;55.898;14.094;2023-07-30T11:23:22;27.90;89.60
10826;DHT22;5466;55.898;14.094;2023-07-30T11:25:23;27.90;91.20
10826;DHT22;5466;55.898;14.094;2023-07-30T11:27:24;28.20;90.80
10826;DHT22;5466;55.898;14.094;2023-07-30T11:29:24;28.50;90.40
10826;DHT22;5466;55.898;14.094;2023-07-30T11:31:25;28.80;87.50
10826;DHT22;5466;55.898;14.094;2023-07-30T11:33:28;29.00;87.40
10826;DHT22;5466;55.898;14.094;2023-07-30T11:35:29;28.80;85.20
10826;DHT22;5466;55.898;14.094;2023-07-30T11:37:30;28.60;84.80
10826;DHT22;5466;55.898;14.094;2023-07-30T11:39:31;28.40;84.00
10826;DHT22;5466;55.898;14.094;2023-07-30T11:41:32;28.20;86.60
10826;DHT22;5466;55.898;14.094;2023-07-30T11:43:33;28.20;85.80
10826;DHT22;5466;55.898;14.094;2023-07-30T11:45:35;28.00;86.50
10826;DHT22;5466;55.898;14.094;2023-07-30T11:47:36;27.90;87.70
10826;DHT22;5466;55.898;14.094;2023-07-30T11:49:37;28.10;87.50
10826;DHT22;5466;55.898;14.094;2023-07-30T11:51:37;28.40;85.40
10826;DHT22;5466;55.898;14.094;2023-07-30T11:53:45;28.40;87.10
10826;DHT22;5466;55.898;14.094;2023-07-30T11:55:46;28.00;87.70
10826;DHT22;5466;55.898;14.094;2023-07-30T11:57:47;27.40;88.30
10826;DHT22;5466;55.898;14.094;2023-07-30T11:59:49;27.60;89.80
10826;DHT22;5466;55.898;14.094;2023-07-30T12:01:49;28.10;88.60
10826;DHT22;5466;55.898;14.094;2023-07-30T12:03:50;28.60;87.10
10826;DHT22;5466;55.898;14.094;2023-07-30T12:05:50;28.60;86.40
10826;DHT22;5466;55.898;14.094;2023-07-30T12:07:51;28.20;84.40
10826;DHT22;5466;55.898;14.094;2023-07-30T12:09:52;27.30;87.80
10826;DHT22;5466;55.898;14.094;2023-07-30T12:13:53;25.70;92.50
10826;DHT22;5466;55.898;14.094;2023-07-30T12:15:55;25.20;93.50
10826;DHT22;5466;55.898;14.094;2023-07-30T12:17:56;24.90;94.60
10826;DHT22;5466;55.898;14.094;2023-07-30T12:20:00;25.10;95.00
10826;DHT22;5466;55.898;14.094;2023-07-30T12:22:01;24.90;95.40
10826;DHT22;5466;55.898;14.094;2023-07-30T12:24:02;25.20;95.70
10826;DHT22;5466;55.898;14.094;2023-07-30T12:26:03;25.30;95.00
10826;DHT22;5466;55.898;14.094;2023-07-30T12:28:07;25.30;95.10
10826;DHT22;5466;55.898;14.094;2023-07-30T12:30:08;25.20;95.80
10826;DHT22;5466;55.898;14.094;2023-07-30T12:32:08;24.80;95.70
10826;DHT22;5466;55.898;14.094;2023-07-30T12:34:09;24.70;96.80
10826;DHT22;5466;55.898;14.094;2023-07-30T12:36:09;24.70;96.70
10826;DHT22;5466;55.898;14.094;2023-07-30T12:38:10;24.90;97.30
10826;DHT22;5466;55.898;14.094;2023-07-30T12:40:11;25.10;97.20
10826;DHT22;5466;55.898;14.094;2023-07-30T12:42:11;25.30;95.20
10826;DHT22;5466;55.898;14.094;2023-07-30T12:44:12;25.10;95.80
10826;DHT22;5466;55.898;14.094;2023-07-30T12:46:13;25.00;95.50
10826;DHT22;5466;55.898;14.094;2023-07-30T12:48:13;25.30;96.60
10826;DHT22;5466;55.898;14.094;2023-07-30T12:50:14;25.30;96.70